Granite, Maryland
Current Conditions -  °F | °C
As of 9:54 PM on Tuesday 25 Nov 2014 (Local Time) from KBWI Reporting Station
Overcast Overcast  
Wind Chill: 44°   Ceiling: 16000
Heat Index: 44°   Visibility: 10mi
Dew Point: 35°   Wind: 0mph
Humidity: 71%   Direction: NA
Pressure: 30.15"   Gusts: NA
Location:  39.337°N, 76.8601°W
Report Text: KBWI 260254Z 00000KT 10SM BKN160 OVC200 07/02 A3015 RMK AO2 PRESRR SLP211 T00670017 51020 $
Loading
Personal Weather Stations






























Interactive Weather Map New forecast layout! Learn more

10-Day Weather Forecast

Advertisements
Track Severe Weather on mobile